Terminal Aerodrome Forecast
Issued by NWS Cleveland, OH

Home | Current Version | Previous Version | Graphics & Text | Print | Product List | Glossary Off
Versions: 1 2 3 4 5 6 7 8 9 10 11 12 13 14 15 16 17 18 19 20 21 22 23 24 25 26 27 28 29 30 31 32 33 34 35

684
FTUS41 KCLE 290717 AAB
TAFCLE
TAF AMD
KCLE 290717Z 2907/3012 36008KT P6SM SCT015 OVC025
     FM291300 03010KT P6SM SCT025
      TEMPO 2913/2915 BKN025
     FM291500 04010KT P6SM SCT025 BKN250
     FM300600 08010KT P6SM OVC120=

USA.gov is the U.S. government's official web portal to all federal, state and local government web resources and services.